Time;durP1;ratioP1;P1;durP2;ratioP2;P2;SDS_P1;SDS_P2;PMS_P1;PMS_P2;Temp;Humidity;BMP_temperature;BMP_pressure;BME280_temperature;BME280_humidity;BME280_pressure;Samples;Min_cycle;Max_cycle;Signal;HPM_P1;HPM_P2
2021/12/10 00:01:06;;;;;;;6.80;4.10;;;7.50;71.60;;;;;;4993330;28;20076;-49
2021/12/10 00:03:56;;;;;;;6.38;4.43;;;7.60;71.70;;;;;;5011974;28;20049;-47
2021/12/10 00:06:31;;;;;;;6.20;4.47;;;7.50;71.80;;;;;;5008688;28;20096;-48
2021/12/10 00:09:07;;;;;;;8.88;4.13;;;7.60;71.80;;;;;;4991255;28;20046;-50
2021/12/10 00:11:43;;;;;;;5.57;3.67;;;7.50;71.70;;;;;;4996691;28;20577;-50
2021/12/10 00:14:10;;;;;;;7.28;3.28;;;7.50;71.60;;;;;;5011719;28;20042;-49
2021/12/10 00:16:41;;;;;;;5.72;3.92;;;7.50;71.40;;;;;;4992187;28;20535;-47
2021/12/10 00:19:22;;;;;;;6.07;3.72;;;7.50;71.30;;;;;;4992800;28;20045;-50
2021/12/10 00:21:51;;;;;;;6.25;3.60;;;7.50;71.10;;;;;;5005011;28;20529;-50
2021/12/10 00:24:18;;;;;;;6.10;3.22;;;7.50;71.10;;;;;;5008031;28;20042;-50
2021/12/10 00:26:45;;;;;;;6.55;3.42;;;7.40;70.90;;;;;;5010991;28;20124;-48
2021/12/10 00:29:13;;;;;;;5.20;3.45;;;7.40;70.90;;;;;;4989401;28;20035;-51
2021/12/10 00:31:47;;;;;;;6.60;3.67;;;7.40;70.90;;;;;;5006148;28;20100;-48
2021/12/10 00:34:43;;;;;;;4.75;3.65;;;7.40;70.90;;;;;;5012070;28;20042;-49
2021/12/10 00:37:14;;;;;;;5.32;3.63;;;7.30;70.90;;;;;;5011222;28;20049;-51
2021/12/10 00:39:54;;;;;;;6.22;3.80;;;7.30;70.90;;;;;;4990833;28;20043;-50
2021/12/10 00:42:25;;;;;;;5.93;3.60;;;7.30;70.90;;;;;;5001717;28;20100;-47
2021/12/10 00:44:52;;;;;;;5.07;3.65;;;7.20;70.80;;;;;;4998374;28;20391;-51
2021/12/10 00:47:19;;;;;;;4.72;3.35;;;7.20;70.80;;;;;;4982524;28;20042;-47
2021/12/10 00:49:46;;;;;;;4.03;3.63;;;7.20;70.80;;;;;;4997296;28;20050;-51
2021/12/10 00:52:15;;;;;;;6.82;3.67;;;7.10;70.80;;;;;;5010982;28;20178;-49
2021/12/10 00:54:42;;;;;;;3.72;3.35;;;7.10;70.80;;;;;;5011228;28;20413;-48
2021/12/10 00:57:10;;;;;;;8.13;3.42;;;7.10;70.80;;;;;;4997518;28;20038;-47
2021/12/10 00:59:38;;;;;;;6.25;3.20;;;7.10;70.80;;;;;;4991284;28;20042;-48
2021/12/10 01:02:07;;;;;;;7.22;3.75;;;7.00;70.80;;;;;;5000738;28;20050;-48
2021/12/10 01:04:38;;;;;;;6.72;3.75;;;7.00;70.70;;;;;;5011244;28;20076;-49
2021/12/10 01:07:09;;;;;;;5.80;3.00;;;7.00;70.70;;;;;;4997789;28;20533;-49
2021/12/10 01:09:46;;;;;;;5.28;3.17;;;7.00;70.70;;;;;;4995998;28;20041;-48
2021/12/10 01:12:25;;;;;;;6.00;3.22;;;7.00;70.70;;;;;;4991345;28;20556;-49
2021/12/10 01:15:21;;;;;;;6.15;2.80;;;7.00;70.60;;;;;;4985204;28;20501;-51
2021/12/10 01:28:54;;;;;;;3.90;2.28;;;6.90;70.50;;;;;;4996844;28;20050;-46
2021/12/10 01:31:21;;;;;;;6.22;2.55;;;6.90;70.40;;;;;;5009863;28;20046;-50
2021/12/10 01:33:50;;;;;;;3.67;2.90;;;6.80;70.40;;;;;;4995816;28;20042;-50
2021/12/10 01:36:17;;;;;;;4.50;2.92;;;6.80;70.40;;;;;;4997435;28;20046;-51
2021/12/10 01:38:48;;;;;;;6.38;3.35;;;6.70;70.40;;;;;;5010551;28;20073;-47
2021/12/10 01:41:17;;;;;;;3.97;2.87;;;6.70;70.40;;;;;;4984082;28;20057;-50
2021/12/10 01:43:47;;;;;;;4.50;2.95;;;6.70;70.50;;;;;;5003727;28;20108;-48
2021/12/10 01:46:19;;;;;;;3.67;3.17;;;6.70;70.50;;;;;;5001417;28;20703;-50
2021/12/10 01:48:51;;;;;;;4.60;3.15;;;6.60;70.50;;;;;;4992704;28;20156;-48
2021/12/10 01:51:22;;;;;;;8.70;3.28;;;6.60;70.50;;;;;;5007695;28;20041;-48
2021/12/10 01:53:52;;;;;;;3.33;2.70;;;6.60;70.60;;;;;;5009504;28;20112;-51
2021/12/10 01:56:24;;;;;;;5.45;2.78;;;6.60;70.60;;;;;;4995068;28;20057;-48
2021/12/10 01:58:52;;;;;;;7.30;3.28;;;6.50;70.60;;;;;;4995382;28;20057;-51
2021/12/10 02:01:24;;;;;;;3.80;2.80;;;6.50;70.60;;;;;;5005959;28;20453;-48
2021/12/10 02:03:52;;;;;;;;;;;6.50;70.70;;;;;;4986005;28;20503;-46
2021/12/10 02:06:18;;;;;;;7.13;2.92;;;6.50;70.80;;;;;;5006432;28;19922;-49
2021/12/10 02:08:46;;;;;;;5.45;2.78;;;6.40;70.60;;;;;;4997081;28;20100;-48
2021/12/10 02:11:14;;;;;;;5.35;2.72;;;6.40;70.70;;;;;;5000172;28;20109;-49
2021/12/10 02:13:42;;;;;;;4.22;2.65;;;6.40;70.70;;;;;;5007495;28;20046;-47
2021/12/10 02:16:09;;;;;;;5.90;2.85;;;6.40;70.80;;;;;;4994799;28;20112;-50
2021/12/10 02:18:36;;;;;;;5.38;2.50;;;6.30;70.80;;;;;;4988060;28;20050;-49
2021/12/10 02:21:03;;;;;;;4.88;2.70;;;6.30;70.90;;;;;;4991245;28;20119;-50
2021/12/10 02:23:34;;;;;;;4.38;2.22;;;6.30;70.90;;;;;;5003013;28;20453;-51
2021/12/10 02:26:04;;;;;;;3.90;2.40;;;6.30;70.90;;;;;;5009545;28;20100;-51
2021/12/10 02:28:31;;;;;;;4.88;2.20;;;6.30;70.90;;;;;;5009668;28;20045;-51
2021/12/10 02:30:59;;;;;;;5.80;2.40;;;6.30;70.90;;;;;;4995866;28;20042;-47
2021/12/10 02:33:26;;;;;;;2.92;2.20;;;6.30;70.90;;;;;;5009822;28;20037;-50
2021/12/10 02:35:53;;;;;;;5.50;2.00;;;6.30;70.90;;;;;;5009773;28;20096;-50
2021/12/10 02:38:22;;;;;;;7.82;2.13;;;6.30;70.90;;;;;;5004576;28;20046;-47
2021/12/10 02:40:51;;;;;;;5.03;2.08;;;6.30;70.90;;;;;;4991633;28;20497;-47
2021/12/10 02:43:22;;;;;;;2.38;2.08;;;6.20;70.90;;;;;;5007146;28;20453;-48
2021/12/10 02:45:56;;;;;;;6.07;2.35;;;6.20;70.80;;;;;;5009352;28;20126;-47
2021/12/10 02:48:25;;;;;;;5.05;1.98;;;6.20;70.90;;;;;;4994556;28;20047;-47
2021/12/10 02:50:54;;;;;;;4.32;1.83;;;6.20;70.80;;;;;;5005156;28;20099;-47
2021/12/10 02:53:27;;;;;;;5.70;2.40;;;6.20;70.80;;;;;;5009588;28;20042;-51
2021/12/10 02:55:56;;;;;;;7.32;2.75;;;6.20;70.80;;;;;;4997221;28;20042;-47
2021/12/10 02:58:24;;;;;;;4.97;2.15;;;6.20;70.80;;;;;;4992193;28;20101;-47
2021/12/10 03:00:54;;;;;;;4.45;2.22;;;6.20;70.80;;;;;;4998136;28;20045;-47
2021/12/10 03:03:21;;;;;;;5.50;1.95;;;6.20;70.90;;;;;;5009783;28;20045;-48
2021/12/10 03:05:48;;;;;;;5.07;2.25;;;6.20;70.90;;;;;;5008275;28;20172;-47
2021/12/10 03:08:18;;;;;;;6.20;1.88;;;6.10;70.90;;;;;;4994974;28;20499;-51
2021/12/10 03:10:45;;;;;;;2.65;1.88;;;6.10;70.90;;;;;;4987543;28;20496;-46
2021/12/10 03:13:12;;;;;;;4.10;1.85;;;6.20;71.00;;;;;;5008958;28;20042;-47
2021/12/10 03:15:39;;;;;;;5.82;1.63;;;6.10;71.00;;;;;;4997145;28;20066;-50
2021/12/10 03:18:09;;;;;;;2.90;1.67;;;6.10;71.00;;;;;;4991483;28;20045;-48
2021/12/10 03:20:36;;;;;;;3.40;1.65;;;6.10;71.00;;;;;;5000385;28;20045;-47
2021/12/10 03:23:05;;;;;;;6.57;1.95;;;6.10;71.00;;;;;;5009231;28;20390;-51
2021/12/10 03:25:33;;;;;;;3.03;1.67;;;6.10;71.10;;;;;;5005174;28;20050;-49
2021/12/10 03:28:00;;;;;;;3.60;1.67;;;6.10;71.10;;;;;;5002678;28;20100;-47
2021/12/10 03:30:30;;;;;;;7.70;1.83;;;6.10;71.10;;;;;;5011672;28;20045;-47
2021/12/10 03:32:58;;;;;;;2.88;2.05;;;6.10;71.10;;;;;;5012852;28;20092;-49
2021/12/10 03:35:29;;;;;;;5.00;1.50;;;6.10;71.10;;;;;;5007360;28;20066;-50
2021/12/10 03:37:59;;;;;;;2.70;1.30;;;6.10;71.20;;;;;;5001235;28;20632;-51
2021/12/10 03:40:26;;;;;;;4.18;2.03;;;6.10;71.10;;;;;;5011833;28;20109;-51
2021/12/10 03:42:58;;;;;;;5.30;1.67;;;6.10;71.10;;;;;;4984834;28;20466;-50
2021/12/10 03:45:29;;;;;;;4.82;1.60;;;6.10;71.20;;;;;;4992511;28;20053;-49
2021/12/10 03:47:57;;;;;;;3.90;1.65;;;6.20;71.20;;;;;;5007462;28;20217;-49
2021/12/10 03:50:28;;;;;;;4.13;1.33;;;6.20;71.20;;;;;;5012712;28;20092;-47
2021/12/10 03:52:56;;;;;;;4.32;1.52;;;6.20;71.20;;;;;;5012650;28;20042;-47
2021/12/10 03:55:23;;;;;;;2.90;1.08;;;6.20;71.20;;;;;;4991364;28;20493;-47
2021/12/10 03:57:52;;;;;;;3.53;1.20;;;6.10;71.20;;;;;;5006878;28;20103;-49
2021/12/10 04:00:22;;;;;;;3.72;1.73;;;6.20;71.20;;;;;;5012977;28;20046;-47
2021/12/10 04:02:50;;;;;;;6.65;1.48;;;6.20;71.20;;;;;;5008373;28;20096;-48
2021/12/10 04:05:18;;;;;;;3.53;1.05;;;6.20;71.10;;;;;;4996464;28;20046;-50
2021/12/10 04:07:44;;;;;;;7.50;1.65;;;6.20;71.10;;;;;;5011800;28;20046;-46
2021/12/10 04:10:16;;;;;;;4.55;1.50;;;6.20;71.10;;;;;;4996861;28;20115;-48
2021/12/10 04:12:43;;;;;;;5.68;1.52;;;6.20;71.10;;;;;;4989051;28;20042;-47
2021/12/10 04:15:12;;;;;;;5.03;1.38;;;6.20;71.10;;;;;;4991235;28;20034;-49
2021/12/10 04:17:40;;;;;;;5.03;1.23;;;6.20;71.10;;;;;;5001633;28;20046;-47
2021/12/10 04:20:11;;;;;;;3.53;1.30;;;6.20;71.10;;;;;;5010527;28;20069;-46
2021/12/10 04:22:38;;;;;;;4.00;1.73;;;6.20;71.10;;;;;;4997123;28;20493;-50
2021/12/10 04:25:08;;;;;;;4.30;1.15;;;6.20;71.10;;;;;;5012668;28;20049;-49
2021/12/10 04:27:35;;;;;;;2.13;0.98;;;6.20;71.10;;;;;;5012186;28;20452;-51
2021/12/10 04:30:06;;;;;;;3.88;1.13;;;6.10;71.10;;;;;;4998584;28;20398;-49
2021/12/10 04:32:33;;;;;;;3.50;1.00;;;6.10;71.10;;;;;;4997487;28;20039;-49
2021/12/10 04:35:00;;;;;;;4.47;1.08;;;6.20;71.10;;;;;;5004105;28;20712;-49
2021/12/10 04:37:27;;;;;;;4.13;1.67;;;6.10;71.10;;;;;;5011009;28;20050;-47
2021/12/10 04:39:55;;;;;;;3.80;1.20;;;6.10;71.10;;;;;;5000767;28;20050;-47
2021/12/10 04:42:25;;;;;;;5.38;2.00;;;6.10;71.10;;;;;;5000199;28;20042;-47
2021/12/10 04:44:54;;;;;;;3.85;1.00;;;6.20;71.10;;;;;;4994973;28;20065;-49
2021/12/10 04:47:21;;;;;;;2.30;0.90;;;6.20;71.20;;;;;;5009538;28;20583;-48
2021/12/10 04:49:50;;;;;;;5.53;1.10;;;6.10;71.10;;;;;;5012387;28;20555;-47
2021/12/10 04:52:17;;;;;;;3.58;1.10;;;6.10;71.20;;;;;;4996316;28;20556;-48
2021/12/10 04:54:44;;;;;;;3.25;0.90;;;6.20;71.20;;;;;;4996766;28;20038;-49
2021/12/10 04:57:11;;;;;;;5.38;1.40;;;6.20;71.20;;;;;;5010173;28;20049;-50
2021/12/10 04:59:38;;;;;;;7.03;1.15;;;6.20;71.20;;;;;;5011473;28;20104;-49
2021/12/10 05:02:12;;;;;;;4.70;1.73;;;6.20;71.20;;;;;;5001279;28;20050;-49
2021/12/10 05:04:42;;;;;;;6.13;2.03;;;6.20;71.20;;;;;;5009688;28;20049;-49
2021/12/10 05:07:15;;;;;;;4.90;1.40;;;6.20;71.20;;;;;;5010380;28;20457;-51
2021/12/10 05:09:42;;;;;;;4.30;1.65;;;6.20;71.20;;;;;;4992337;28;20792;-47
2021/12/10 05:12:10;;;;;;;9.73;2.28;;;6.30;71.30;;;;;;5001985;28;20089;-48
2021/12/10 05:14:37;;;;;;;3.47;0.93;;;6.30;71.30;;;;;;5024460;28;20251;-50
2021/12/10 05:17:08;;;;;;;3.85;1.33;;;6.30;71.30;;;;;;4986523;28;20042;-48
2021/12/10 05:19:37;;;;;;;4.83;1.00;;;6.40;71.40;;;;;;4995874;28;20038;-51
2021/12/10 05:22:07;;;;;;;6.53;1.77;;;6.40;71.30;;;;;;4999749;28;20042;-49
2021/12/10 05:24:34;;;;;;;3.53;1.10;;;6.50;71.20;;;;;;4983307;28;20093;-47
2021/12/10 05:27:02;;;;;;;5.63;1.63;;;6.50;71.10;;;;;;4981548;28;20150;-51
2021/12/10 05:29:30;;;;;;;3.58;1.30;;;6.50;71.00;;;;;;4987686;28;20477;-48
2021/12/10 05:31:59;;;;;;;3.03;1.05;;;6.60;70.90;;;;;;4988035;28;20039;-50
2021/12/10 05:34:26;;;;;;;6.63;1.45;;;6.50;70.80;;;;;;4985644;28;20133;-49
2021/12/10 05:36:53;;;;;;;5.88;1.85;;;6.60;70.80;;;;;;4984517;28;20053;-50
2021/12/10 05:39:23;;;;;;;1.92;1.10;;;6.60;70.80;;;;;;4986751;28;20046;-47
2021/12/10 05:41:54;;;;;;;4.07;0.98;;;6.60;70.70;;;;;;4985607;28;20046;-47
2021/12/10 05:44:21;;;;;;;4.85;1.42;;;6.70;70.60;;;;;;4986460;28;20042;-47
2021/12/10 05:46:48;;;;;;;4.57;0.95;;;6.70;70.60;;;;;;4984488;28;20108;-50
2021/12/10 05:49:14;;;;;;;4.63;1.23;;;6.70;70.50;;;;;;4984407;28;20038;-51
2021/12/10 05:51:41;;;;;;;4.72;1.52;;;6.70;70.40;;;;;;4983866;28;20042;-50
2021/12/10 05:54:08;;;;;;;4.53;1.95;;;6.70;70.40;;;;;;4980687;28;20551;-48
2021/12/10 05:56:35;;;;;;;5.20;1.40;;;6.70;70.30;;;;;;4984313;28;20065;-47
2021/12/10 05:59:04;;;;;;;2.25;1.13;;;6.70;70.20;;;;;;4981562;28;20517;-50
2021/12/10 06:01:33;;;;;;;4.35;1.13;;;6.70;70.10;;;;;;4976908;28;20477;-50
2021/12/10 06:04:00;;;;;;;5.30;1.10;;;6.70;70.10;;;;;;4992901;28;20050;-49
2021/12/10 06:06:30;;;;;;;5.47;1.10;;;6.80;70.00;;;;;;4991498;28;20043;-51
2021/12/10 06:08:59;;;;;;;3.65;0.98;;;6.80;70.10;;;;;;5007700;28;20054;-51
2021/12/10 06:11:26;;;;;;;2.20;1.27;;;6.80;70.30;;;;;;5008992;28;20041;-48
2021/12/10 06:13:56;;;;;;;3.90;1.75;;;6.80;70.40;;;;;;5001222;28;20041;-51
2021/12/10 06:16:24;;;;;;;3.45;1.35;;;6.80;70.40;;;;;;4999417;28;20042;-50
2021/12/10 06:18:51;;;;;;;5.05;1.67;;;6.80;70.50;;;;;;4998476;28;20096;-49
2021/12/10 06:21:19;;;;;;;5.55;2.00;;;6.80;70.50;;;;;;4988825;28;20108;-50
2021/12/10 06:23:46;;;;;;;6.40;1.58;;;6.80;70.50;;;;;;4982130;28;20038;-47
2021/12/10 06:26:14;;;;;;;3.78;1.38;;;7.00;70.60;;;;;;4978892;28;20046;-47
2021/12/10 06:28:45;;;;;;;3.42;1.10;;;6.90;70.60;;;;;;4990094;28;20501;-47
2021/12/10 06:31:18;;;;;;;3.20;1.05;;;6.90;70.70;;;;;;4994134;28;20050;-47
2021/12/10 06:33:45;;;;;;;3.10;1.27;;;6.90;70.60;;;;;;4983765;28;20050;-46
2021/12/10 06:36:13;;;;;;;4.03;1.42;;;6.90;70.50;;;;;;4999187;28;20042;-48
2021/12/10 06:38:40;;;;;;;4.97;1.52;;;6.90;70.30;;;;;;5008406;28;20054;-49
2021/12/10 06:41:07;;;;;;;6.03;1.75;;;7.00;70.20;;;;;;4996273;28;20152;-48
2021/12/10 06:43:34;;;;;;;5.30;1.63;;;6.90;70.10;;;;;;4986016;28;20042;-48
2021/12/10 06:46:05;;;;;;;4.65;1.90;;;7.00;70.10;;;;;;4995803;28;20068;-47
2021/12/10 06:48:33;;;;;;;6.95;2.35;;;7.00;70.00;;;;;;5007970;28;20656;-47
2021/12/10 06:51:03;;;;;;;5.72;2.17;;;7.00;70.00;;;;;;4995726;28;20070;-47
2021/12/10 06:53:33;;;;;;;7.47;2.20;;;7.00;70.00;;;;;;5000077;28;20042;-47
2021/12/10 06:55:59;;;;;;;6.45;2.65;;;7.00;70.00;;;;;;4989545;28;20061;-47
2021/12/10 06:58:29;;;;;;;6.68;2.33;;;7.00;70.00;;;;;;5006690;28;20111;-47
2021/12/10 07:01:00;;;;;;;5.15;2.33;;;7.00;70.00;;;;;;5003435;28;20065;-48
2021/12/10 07:03:29;;;;;;;9.15;2.92;;;7.00;70.10;;;;;;4998719;28;20054;-48
2021/12/10 07:05:57;;;;;;;5.57;2.97;;;7.00;70.10;;;;;;4990716;28;20050;-49
2021/12/10 07:08:26;;;;;;;8.88;3.45;;;7.00;70.20;;;;;;5003690;28;20050;-47
2021/12/10 07:10:54;;;;;;;7.18;2.60;;;7.00;70.10;;;;;;5003632;28;20038;-48
2021/12/10 07:13:20;;;;;;;4.68;2.38;;;7.00;70.00;;;;;;4991891;28;20105;-48
2021/12/10 07:15:49;;;;;;;8.82;3.10;;;7.00;70.00;;;;;;4991984;28;20267;-48
2021/12/10 07:18:19;;;;;;;5.57;2.88;;;7.00;69.90;;;;;;5009802;28;20060;-48
2021/12/10 07:20:46;;;;;;;6.63;3.15;;;7.00;69.90;;;;;;5004024;28;20587;-46
2021/12/10 07:23:13;;;;;;;8.13;3.17;;;7.00;69.70;;;;;;5004929;28;20034;-47
2021/12/10 07:25:40;;;;;;;7.55;2.97;;;7.10;69.80;;;;;;4996898;28;20093;-46
2021/12/10 07:28:07;;;;;;;6.10;3.22;;;7.00;69.70;;;;;;4990513;28;20046;-48
2021/12/10 07:30:35;;;;;;;7.25;2.80;;;7.00;69.70;;;;;;4989397;28;20105;-47
2021/12/10 07:33:06;;;;;;;7.97;3.33;;;7.00;69.60;;;;;;4997827;28;20044;-46
2021/12/10 07:35:34;;;;;;;5.70;2.80;;;7.10;69.50;;;;;;4994297;28;20469;-46
2021/12/10 07:38:00;;;;;;;5.60;2.72;;;7.10;69.60;;;;;;4992637;28;20054;-48
2021/12/10 07:40:29;;;;;;;6.50;3.80;;;7.10;69.60;;;;;;4992783;28;20038;-49
2021/12/10 07:42:59;;;;;;;6.15;3.47;;;7.10;69.60;;;;;;4996330;28;20049;-50
2021/12/10 07:45:27;;;;;;;7.88;3.33;;;7.10;69.60;;;;;;5012779;28;20528;-47
2021/12/10 07:47:56;;;;;;;6.00;3.42;;;7.10;69.60;;;;;;5004583;28;20461;-47
2021/12/10 07:50:30;;;;;;;6.50;2.92;;;7.10;69.50;;;;;;4987996;28;20845;-47
2021/12/10 07:52:57;;;;;;;11.50;3.40;;;7.10;69.40;;;;;;5005223;28;20038;-49
2021/12/10 07:55:27;;;;;;;5.68;3.40;;;7.10;69.30;;;;;;4992461;28;20043;-49
2021/12/10 07:57:55;;;;;;;6.88;2.92;;;7.20;69.30;;;;;;5006600;28;20097;-48
2021/12/10 08:00:24;;;;;;;9.52;3.45;;;7.20;69.30;;;;;;4995826;28;20049;-47
2021/12/10 08:02:51;;;;;;;7.13;2.63;;;7.20;69.20;;;;;;5008728;28;20054;-47
2021/12/10 08:05:21;;;;;;;4.70;2.72;;;7.20;69.20;;;;;;5010665;28;20521;-47
2021/12/10 08:07:50;;;;;;;4.05;2.20;;;7.20;69.20;;;;;;4986036;28;20116;-50
2021/12/10 08:10:17;;;;;;;7.63;3.13;;;7.20;69.20;;;;;;4993125;28;20042;-50
2021/12/10 08:12:44;;;;;;;3.05;2.38;;;7.30;69.20;;;;;;5013526;28;20041;-46
2021/12/10 08:15:11;;;;;;;6.20;2.85;;;7.20;69.10;;;;;;4995691;28;20474;-48
2021/12/10 08:17:38;;;;;;;7.15;2.58;;;7.20;69.10;;;;;;4988273;28;20104;-46
2021/12/10 08:20:08;;;;;;;7.03;2.63;;;7.30;69.10;;;;;;4993762;28;20438;-47
2021/12/10 08:22:35;;;;;;;6.97;2.78;;;7.30;69.10;;;;;;5011506;28;20046;-47
2021/12/10 08:25:03;;;;;;;5.80;2.10;;;7.30;69.10;;;;;;4999708;28;20057;-51
2021/12/10 08:27:29;;;;;;;7.43;2.33;;;7.30;69.10;;;;;;5004685;28;20046;-48
2021/12/10 08:30:02;;;;;;;5.28;2.17;;;7.40;69.10;;;;;;5013251;28;20038;-46
2021/12/10 08:32:31;;;;;;;7.93;2.15;;;7.40;69.10;;;;;;4983098;28;20050;-49
2021/12/10 08:34:59;;;;;;;4.78;2.10;;;7.40;68.90;;;;;;5000398;28;20046;-49
2021/12/10 08:37:25;;;;;;;5.40;2.55;;;7.40;68.90;;;;;;4986239;28;20030;-49
2021/12/10 08:39:52;;;;;;;5.50;1.67;;;7.40;68.80;;;;;;4999027;28;20042;-47
2021/12/10 08:42:19;;;;;;;5.85;2.40;;;7.40;68.70;;;;;;5002786;28;20053;-47
2021/12/10 08:44:46;;;;;;;4.82;2.05;;;7.50;68.80;;;;;;4993385;28;20054;-47
2021/12/10 08:47:14;;;;;;;6.75;2.30;;;7.50;68.70;;;;;;4988089;28;20081;-47
2021/12/10 08:49:42;;;;;;;4.55;2.03;;;7.50;68.70;;;;;;4997487;28;20037;-47
2021/12/10 08:52:09;;;;;;;3.70;2.22;;;7.50;68.60;;;;;;5012529;28;20053;-50
2021/12/10 08:54:38;;;;;;;8.57;2.03;;;7.60;68.60;;;;;;5042229;22;20049;-72
2021/12/10 08:57:12;;;;;;;2.83;1.52;;;7.60;68.40;;;;;;5043174;28;20043;-72
2021/12/10 08:59:40;;;;;;;4.88;1.50;;;7.60;68.40;;;;;;5051763;28;20049;-72
2021/12/10 09:02:10;;;;;;;5.50;1.52;;;7.70;68.40;;;;;;5038957;28;20056;-72
2021/12/10 09:04:38;;;;;;;3.47;1.40;;;7.70;68.90;;;;;;5025634;28;20681;-72
2021/12/10 09:07:09;;;;;;;7.15;1.88;;;7.70;68.20;;;;;;5030266;28;20496;-72
2021/12/10 09:09:40;;;;;;;5.00;1.75;;;7.70;68.00;;;;;;5020141;28;20049;-72
2021/12/10 09:12:13;;;;;;;6.65;2.00;;;7.70;67.80;;;;;;5009757;28;20555;-72
2021/12/10 09:14:46;;;;;;;2.78;1.40;;;7.70;67.80;;;;;;5007254;28;20045;-75
2021/12/10 09:17:20;;;;;;;3.83;1.38;;;7.80;67.80;;;;;;5025545;28;20037;-72
2021/12/10 09:19:59;;;;;;;6.97;1.90;;;7.80;67.80;;;;;;5031418;28;20254;-72
2021/12/10 09:22:27;;;;;;;5.70;1.85;;;7.70;67.70;;;;;;5016902;28;20072;-72
2021/12/10 09:24:57;;;;;;;3.05;1.63;;;7.80;67.80;;;;;;5014470;28;20046;-72
2021/12/10 09:27:25;;;;;;;5.95;1.95;;;7.90;67.60;;;;;;5002869;28;20120;-74
2021/12/10 09:29:54;;;;;;;4.82;1.52;;;7.80;67.30;;;;;;5003427;28;20108;-72
2021/12/10 09:32:24;;;;;;;7.95;1.63;;;7.90;67.40;;;;;;5011051;28;20080;-72
2021/12/10 09:34:55;;;;;;;4.40;1.77;;;7.90;67.50;;;;;;5017488;28;20036;-75
2021/12/10 09:37:24;;;;;;;5.78;2.10;;;7.90;67.50;;;;;;5012853;28;20046;-72
2021/12/10 09:39:53;;;;;;;3.58;2.03;;;7.90;67.60;;;;;;5029846;28;20049;-72
2021/12/10 09:42:22;;;;;;;7.03;1.80;;;7.90;67.60;;;;;;5001295;28;20580;-72
2021/12/10 09:44:52;;;;;;;3.78;1.58;;;8.00;67.50;;;;;;5025219;28;20049;-72
2021/12/10 09:47:19;;;;;;;3.58;1.50;;;8.00;67.40;;;;;;5030245;28;20041;-72
2021/12/10 09:49:50;;;;;;;5.00;1.52;;;8.00;67.30;;;;;;5026218;28;20033;-72
2021/12/10 09:52:21;;;;;;;4.18;1.27;;;8.00;67.20;;;;;;5019813;28;20049;-73
2021/12/10 09:54:48;;;;;;;3.42;1.55;;;8.10;67.20;;;;;;5012831;28;20547;-75
2021/12/10 09:57:18;;;;;;;4.30;1.88;;;8.10;67.30;;;;;;5021168;28;20409;-72
2021/12/10 09:59:51;;;;;;;7.88;1.92;;;8.10;67.30;;;;;;5030439;28;20045;-72
2021/12/10 10:02:20;;;;;;;3.35;1.83;;;8.10;67.30;;;;;;5029051;28;20045;-73
2021/12/10 10:04:50;;;;;;;4.13;1.83;;;8.20;67.30;;;;;;5012263;28;20049;-72
2021/12/10 10:07:25;;;;;;;5.10;2.05;;;8.20;67.20;;;;;;5029980;28;20048;-72
2021/12/10 10:10:07;;;;;;;4.55;2.25;;;8.20;67.00;;;;;;5015141;28;20056;-72
2021/12/10 10:12:37;;;;;;;3.70;1.37;;;8.30;66.80;;;;;;5025110;28;20055;-72
2021/12/10 10:15:16;;;;;;;6.18;1.73;;;8.30;67.00;;;;;;5022648;28;20300;-72
2021/12/10 10:17:58;;;;;;;7.30;1.50;;;8.30;66.80;;;;;;4990799;28;20414;-72
2021/12/10 10:20:28;;;;;;;5.65;1.67;;;8.40;66.80;;;;;;5009186;28;20056;-72
2021/12/10 10:22:55;;;;;;;4.65;2.13;;;8.40;66.60;;;;;;5006446;28;20057;-72
2021/12/10 10:25:26;;;;;;;3.15;1.90;;;8.40;66.40;;;;;;5029232;28;20452;-74
2021/12/10 10:27:54;;;;;;;3.25;1.60;;;8.40;66.40;;;;;;5023049;28;20057;-72
2021/12/10 10:30:30;;;;;;;5.63;2.00;;;8.40;66.40;;;;;;5026512;28;20037;-72
2021/12/10 10:33:02;;;;;;;3.72;1.95;;;8.50;66.20;;;;;;5016112;28;20061;-72
2021/12/10 10:35:57;;;;;;;2.25;1.45;;;8.50;66.30;;;;;;5011480;28;20073;-73
2021/12/10 10:38:26;;;;;;;4.32;1.65;;;8.50;66.20;;;;;;5021754;28;20489;-74
2021/12/10 10:40:57;;;;;;;3.38;1.73;;;8.60;66.30;;;;;;5000458;28;20058;-75
2021/12/10 10:43:27;;;;;;;7.03;1.67;;;8.60;66.00;;;;;;5015649;28;20050;-72
2021/12/10 10:45:56;;;;;;;5.00;1.77;;;8.60;65.90;;;;;;5006650;28;20050;-72
2021/12/10 10:48:25;;;;;;;3.15;1.33;;;8.70;65.90;;;;;;4965818;28;20045;-73
2021/12/10 10:51:01;;;;;;;3.58;1.85;;;8.70;65.90;;;;;;4999480;28;20050;-72
2021/12/10 10:53:34;;;;;;;4.38;2.17;;;8.80;65.60;;;;;;4987806;28;20061;-72
2021/12/10 10:56:12;;;;;;;2.95;1.75;;;8.80;65.30;;;;;;5002195;28;20520;-73
2021/12/10 10:58:47;;;;;;;3.58;1.70;;;8.80;65.10;;;;;;4991498;28;20501;-73
2021/12/10 11:01:32;;;;;;;7.05;2.22;;;8.90;65.00;;;;;;4997079;28;20092;-73
2021/12/10 11:04:28;;;;;;;3.97;1.87;;;8.90;64.60;;;;;;4986579;28;20096;-73
2021/12/10 11:07:04;;;;;;;5.00;1.60;;;8.90;64.90;;;;;;4989356;28;20490;-73
2021/12/10 11:09:33;;;;;;;8.50;2.55;;;9.00;65.20;;;;;;4985038;28;20125;-73
2021/12/10 11:12:04;;;;;;;3.13;1.63;;;9.00;65.10;;;;;;5009784;28;20378;-73
2021/12/10 11:14:34;;;;;;;7.25;1.85;;;9.00;65.00;;;;;;4985488;28;20046;-73
2021/12/10 11:17:25;;;;;;;5.32;2.20;;;9.00;64.90;;;;;;4995934;28;20041;-73
2021/12/10 11:19:57;;;;;;;4.43;1.73;;;9.00;64.50;;;;;;4998420;28;20073;-73
2021/12/10 11:22:25;;;;;;;3.70;1.75;;;9.00;64.80;;;;;;4998364;28;20046;-75
2021/12/10 11:25:10;;;;;;;4.20;2.53;;;9.00;64.30;;;;;;5020550;22;20056;-47
2021/12/10 11:27:40;;;;;;;4.60;1.98;;;9.00;63.50;;;;;;5013805;28;20111;-49
2021/12/10 11:30:26;;;;;;;4.72;2.08;;;9.00;64.20;;;;;;4993229;28;20039;-49
2021/12/10 11:33:00;;;;;;;5.65;2.10;;;8.90;64.10;;;;;;4971691;28;20049;-47
2021/12/10 11:35:31;;;;;;;4.63;1.92;;;8.90;64.50;;;;;;4983542;28;20043;-46
2021/12/10 11:38:10;;;;;;;5.03;1.58;;;8.90;64.80;;;;;;4977382;28;20105;-47
2021/12/10 11:40:57;;;;;;;5.43;2.00;;;8.80;64.80;;;;;;4972747;28;20082;-47
2021/12/10 11:43:44;;;;;;;3.58;2.03;;;8.80;64.90;;;;;;4977647;28;20038;-46
2021/12/10 11:48:54;;;;;;;4.45;1.60;;;8.70;65.20;;;;;;4979364;28;20046;-47
2021/12/10 11:51:31;;;;;;;1.90;1.38;;;8.70;65.20;;;;;;4987222;28;20513;-48
2021/12/10 11:54:14;;;;;;;3.38;1.55;;;8.70;65.40;;;;;;4978626;28;20074;-49
2021/12/10 11:56:45;;;;;;;5.40;1.73;;;8.70;65.70;;;;;;4990827;28;20038;-48
2021/12/10 11:59:19;;;;;;;2.22;1.40;;;8.60;65.90;;;;;;4975492;28;20046;-47
2021/12/10 12:01:57;;;;;;;5.18;1.83;;;8.60;66.10;;;;;;4988793;28;20042;-48
2021/12/10 12:04:40;;;;;;;6.30;1.90;;;8.60;66.40;;;;;;4974025;28;20047;-47
2021/12/10 12:07:22;;;;;;;3.05;1.38;;;8.60;66.50;;;;;;5000313;28;20049;-47
2021/12/10 12:09:55;;;;;;;4.32;2.10;;;8.50;66.40;;;;;;4985111;28;20049;-47
2021/12/10 12:12:37;;;;;;;3.90;1.75;;;8.50;66.40;;;;;;4993746;28;21182;-48
2021/12/10 12:15:11;;;;;;;2.80;1.63;;;8.50;66.70;;;;;;4987478;28;20043;-47
2021/12/10 12:17:45;;;;;;;3.95;1.90;;;8.50;66.80;;;;;;4977282;28;20563;-48
2021/12/10 12:20:24;;;;;;;4.38;2.13;;;8.40;67.10;;;;;;4976085;28;20047;-47
2021/12/10 12:26:13;;;;;;;5.72;2.58;;;8.40;67.50;;;;;;4983531;28;20061;-50
2021/12/10 12:29:12;;;;;;;3.03;1.58;;;8.40;67.70;;;;;;4977495;28;20874;-50
2021/12/10 12:31:43;;;;;;;3.20;1.42;;;8.30;67.60;;;;;;4990506;28;20050;-50
2021/12/10 12:34:14;;;;;;;6.28;1.80;;;8.30;67.80;;;;;;4975966;28;20126;-50
2021/12/10 12:36:49;;;;;;;5.45;2.10;;;8.30;67.70;;;;;;4989067;28;20038;-50
2021/12/10 12:39:42;;;;;;;3.08;2.10;;;8.30;67.80;;;;;;4980325;28;20046;-50
2021/12/10 12:42:35;;;;;;;4.45;1.95;;;8.30;68.00;;;;;;4996954;28;20655;-49
2021/12/10 12:45:23;;;;;;;5.03;1.85;;;8.30;68.10;;;;;;4986052;28;20043;-51
2021/12/10 12:48:13;;;;;;;3.55;1.80;;;8.30;68.10;;;;;;4979116;28;20126;-47
2021/12/10 12:50:46;;;;;;;6.40;2.35;;;8.30;68.10;;;;;;4985092;28;20038;-45
2021/12/10 12:53:18;;;;;;;5.35;2.25;;;8.30;68.20;;;;;;4989959;28;20051;-48
2021/12/10 12:55:59;;;;;;;5.35;2.30;;;8.20;68.30;;;;;;4975326;28;20085;-46
2021/12/10 12:59:03;;;;;;;2.97;2.00;;;8.20;68.60;;;;;;4972253;28;20050;-49
2021/12/10 13:01:36;;;;;;;3.65;2.28;;;8.30;68.70;;;;;;4981473;28;20050;-50
2021/12/10 13:04:09;;;;;;;5.45;2.08;;;8.30;68.60;;;;;;4981821;28;20113;-49
2021/12/10 13:07:02;;;;;;;2.45;1.98;;;8.30;68.60;;;;;;4987700;28;20125;-49
2021/12/10 13:09:48;;;;;;;7.90;2.30;;;8.20;68.50;;;;;;4971930;28;20065;-51
2021/12/10 13:12:54;;;;;;;6.50;2.30;;;8.30;68.70;;;;;;4987606;28;20042;-51
2021/12/10 13:15:16;;;;;;;2.88;1.92;;;8.30;68.90;;;;;;4978050;28;20117;-49
2021/12/10 13:17:54;;;;;;;4.70;2.60;;;8.30;68.70;;;;;;4984553;28;20035;-46
2021/12/10 13:20:29;;;;;;;5.57;2.40;;;8.30;68.90;;;;;;4984692;28;20290;-47
2021/12/10 13:23:01;;;;;;;5.25;2.90;;;8.30;68.90;;;;;;4997240;28;20047;-45
2021/12/10 13:25:30;;;;;;;5.55;3.00;;;8.30;68.80;;;;;;4981230;28;20070;-48
2021/12/10 13:28:00;;;;;;;3.85;2.95;;;8.30;68.90;;;;;;4986308;28;20074;-49
2021/12/10 13:30:31;;;;;;;3.83;2.63;;;8.30;69.00;;;;;;4979901;28;20047;-46
2021/12/10 13:32:58;;;;;;;5.60;3.13;;;8.30;69.20;;;;;;4985658;28;20045;-50
2021/12/10 13:35:28;;;;;;;7.10;4.10;;;8.30;69.20;;;;;;4984371;28;20438;-46